Latino — OR4130 — position and weather

sailwx.info

Track history (hours):
 
Tides and Currents Weather Stations Pressure Air Temp Water Temp Dewpoint Dewpoint Depression Visibility Wind Speed Wind Dir Waves Ship Positions

Latino

Last reported at 2018-Mar-29 18:07 UTC. Time now 2018-Apr-21 00:26 UTC.
Position N 17°57' W 062°58'.
Warning: this ship's position is 22 days out of date.

Length 12 m.

Type: Sailing vessel. MMSI: 205413010.

Date/timePositionNaut miles runAvg speedWind from/ knotsBaromVisibWave heightAir tempDewpointWater temp
2018-Mar-29 18:07N 17°57' W 062°58'1 6.6
2018-Mar-29 17:55N 17°57' W 062°60'3 6.8
2018-Mar-29 17:26N 17°59' W 063°03'4 6.9
2018-Mar-29 16:55N 18°00' W 063°06'3 6.2
2018-Mar-29 16:24N 18°02' W 063°09'2 5.3
2018-Mar-29 16:00N 18°04' W 063°10'3 5.9
2018-Mar-29 15:30N 18°05' W 063°07'2 2.9
2018-Mar-29 14:54N 18°04' W 063°06'0 0.0
2018-Mar-29 14:24N 18°04' W 063°06'0 0.0
2018-Mar-29 13:54N 18°04' W 063°06'0 0.0
2018-Mar-29 13:30N 18°04' W 063°06'0 0.0
2018-Mar-29 13:00N 18°04' W 063°06'0 0.0
2018-Mar-29 12:27N 18°04' W 063°06'0 0.0
2018-Mar-29 11:52N 18°04' W 063°06'0 0.0
2018-Mar-29 11:30N 18°04' W 063°06'0 0.0
2018-Mar-29 10:47N 18°04' W 063°06'0 0.0
2018-Mar-29 10:30N 18°04' W 063°06'0 0.0
2018-Mar-29 09:50N 18°04' W 063°06'0 0.0
2018-Mar-29 09:20N 18°04' W 063°06'0 0.0
2018-Mar-29 09:00N 18°04' W 063°06'0 0.0
2018-Mar-29 08:07N 18°04' W 063°06'0 0.0
2018-Mar-29 07:50N 18°04' W 063°06'0 0.0
2018-Mar-29 07:16N 18°04' W 063°06'0 0.0
2018-Mar-29 06:48N 18°04' W 063°06'0 0.0
2018-Mar-29 06:27N 18°04' W 063°06'0 0.0
2018-Mar-29 05:52N 18°04' W 063°06'0 0.0
2018-Mar-29 05:22N 18°04' W 063°06'0 0.0
2018-Mar-29 05:00N 18°04' W 063°06'0 0.0
2018-Mar-29 04:30N 18°04' W 063°06'0 0.0
2018-Mar-29 03:50N 18°04' W 063°06'0 0.0
2018-Mar-29 03:30N 18°04' W 063°06'0 0.0
2018-Mar-29 03:00N 18°04' W 063°06'0 0.0
2018-Mar-29 02:23N 18°04' W 063°06'0 0.0
2018-Mar-29 01:48N 18°04' W 063°06'0 0.0
2018-Mar-29 01:27N 18°04' W 063°06'0 0.0
2018-Mar-29 00:52N 18°04' W 063°06'0 0.0
2018-Mar-29 00:23N 18°04' W 063°06'0 0.0
2018-Mar-28 23:47N 18°04' W 063°06'0 0.0
2018-Mar-28 23:29N 18°04' W 063°06'0 0.0
2018-Mar-28 22:47N 18°04' W 063°06'0 0.0
2018-Mar-28 22:29N 18°04' W 063°06'0 0.0
2018-Mar-28 21:50N 18°04' W 063°06'0 0.0
2018-Mar-28 21:20N 18°04' W 063°06'0 0.0
2018-Mar-28 20:50N 18°04' W 063°06'0 0.0
2018-Mar-28 20:20N 18°04' W 063°06'0 0.0
2018-Mar-28 19:38N 18°04' W 063°06'0 0.0
2018-Mar-28 19:17N 18°04' W 063°06'0 0.0
2018-Mar-28 18:53N 18°04' W 063°06'0 0.0
2018-Mar-28 18:24N 18°04' W 063°06'0 0.0
2018-Mar-28 17:53N 18°04' W 063°06'0 0.0
2018-Mar-28 17:09N 18°04' W 063°06'0 0.0
2018-Mar-28 16:56N 18°04' W 063°06'0 0.0
2018-Mar-28 16:26N 18°04' W 063°06'0 0.0
2018-Mar-28 15:56N 18°04' W 063°06'0 0.0
2018-Mar-28 15:26N 18°04' W 063°06'0 0.0
2018-Mar-28 14:53N 18°04' W 063°06'0 0.0
2018-Mar-28 14:14N 18°04' W 063°06'0 0.0
2018-Mar-28 13:59N 18°04' W 063°06'0 0.0
2018-Mar-28 13:02N 18°04' W 063°06'0 0.0
2018-Mar-28 12:59N 18°04' W 063°06'0 0.0
2018-Mar-28 12:30N 18°04' W 063°06'0 0.0
2018-Mar-28 11:32N 18°04' W 063°06'0 0.0
2018-Mar-28 11:29N 18°04' W 063°06'0 0.0
2018-Mar-28 10:59N 18°04' W 063°06'0 0.0
2018-Mar-28 10:29N 18°04' W 063°06'0 0.0
2018-Mar-28 09:50N 18°04' W 063°06'0 0.0
2018-Mar-28 09:20N 18°04' W 063°06'0 0.0
2018-Mar-28 08:50N 18°04' W 063°06'0 0.0
2018-Mar-28 08:23N 18°04' W 063°06'0 0.0
2018-Mar-28 07:54N 18°04' W 063°06'0 0.0
2018-Mar-28 07:23N 18°04' W 063°06'0 0.0
2018-Mar-28 06:54N 18°04' W 063°06'0 0.0
2018-Mar-28 06:26N 18°04' W 063°06'0 0.0
2018-Mar-28 05:41N 18°04' W 063°06'0 0.0
2018-Mar-28 05:23N 18°04' W 063°06'0 0.0
2018-Mar-28 04:53N 18°04' W 063°06'0 0.0
2018-Mar-28 04:26N 18°04' W 063°06'0 0.0
2018-Mar-28 03:56N 18°04' W 063°06'0 0.0
2018-Mar-28 03:29N 18°04' W 063°06'0 0.0
2018-Mar-28 02:59N 18°04' W 063°06'0 0.0
2018-Mar-28 02:29N 18°04' W 063°06'0 0.0
2018-Mar-28 01:44N 18°04' W 063°06'0 0.0
2018-Mar-28 01:30N 18°04' W 063°06'0 0.0
2018-Mar-28 00:57N 18°04' W 063°06'0 0.0
2018-Mar-28 00:30N 18°04' W 063°06'0 0.0
2018-Mar-27 23:59N 18°04' W 063°06'0 0.0
2018-Mar-27 23:29N 18°04' W 063°06'0 0.0
2018-Mar-27 23:00N 18°04' W 063°06'0 0.0
2018-Mar-27 22:29N 18°04' W 063°06'0 0.0
2018-Mar-27 21:48N 18°04' W 063°06'0 0.0
2018-Mar-27 21:20N 18°04' W 063°06'0 0.0
2018-Mar-27 20:54N 18°04' W 063°06'0 0.0
2018-Mar-27 20:23N 18°04' W 063°06'0 0.0
2018-Mar-27 19:53N 18°04' W 063°06'0 0.0
2018-Mar-27 19:24N 18°04' W 063°06'0 0.0
2018-Mar-27 18:53N 18°04' W 063°06'0 0.0
2018-Mar-27 18:23N 18°04' W 063°06'0 0.0
2018-Mar-27 17:57N 18°04' W 063°06'0 0.0
2018-Mar-27 17:27N 18°04' W 063°06'0 0.0
2018-Mar-27 16:56N 18°04' W 063°06'0 0.0
2018-Mar-27 16:27N 18°04' W 063°06'0 0.0
2018-Mar-27 15:57N 18°04' W 063°06'0 0.0
2018-Mar-27 15:27N 18°04' W 063°06'0 0.0
2018-Mar-27 14:57N 18°04' W 063°06'0 0.0
2018-Mar-27 14:27N 18°04' W 063°06'0 0.0
2018-Mar-27 13:30N 18°04' W 063°06'0 0.0
2018-Mar-27 12:57N 18°04' W 063°06'0 0.0
2018-Mar-27 12:27N 18°04' W 063°06'0 0.0
2018-Mar-27 12:00N 18°04' W 063°06'0 0.0
2018-Mar-27 10:30N 18°04' W 063°06'0 0.0
2018-Mar-27 09:51N 18°04' W 063°06'0 0.0
2018-Mar-27 09:21N 18°04' W 063°06'0 0.0
2018-Mar-27 08:51N 18°04' W 063°06'0 0.0
2018-Mar-27 08:21N 18°04' W 063°06'0 0.0
2018-Mar-27 07:51N 18°04' W 063°06'0 0.0
2018-Mar-27 07:24N 18°04' W 063°06'0 0.0
2018-Mar-27 06:54N 18°04' W 063°06'0 0.0
2018-Mar-27 06:21N 18°04' W 063°06'0 0.0
2018-Mar-27 05:57N 18°04' W 063°06'0 0.0
2018-Mar-27 05:27N 18°04' W 063°06'0 0.0
2018-Mar-27 04:57N 18°04' W 063°06'0 0.0
2018-Mar-27 04:27N 18°04' W 063°06'0 0.0
2018-Mar-27 03:57N 18°04' W 063°06'0 0.0
2018-Mar-27 03:15N 18°04' W 063°06'0 0.0
2018-Mar-27 02:57N 18°04' W 063°06'0 0.0
2018-Mar-27 02:30N 18°04' W 063°06'0 0.0
2018-Mar-27 01:57N 18°04' W 063°06'0 0.0
2018-Mar-27 01:30N 18°04' W 063°06'0 0.0
2018-Mar-27 01:00N 18°04' W 063°06'0 0.0
2018-Mar-27 00:30N 18°04' W 063°06'0 0.0
2018-Mar-27 00:00N 18°04' W 063°06'0 0.0
2018-Mar-26 23:18N 18°04' W 063°06'0 0.0
2018-Mar-26 23:00N 18°04' W 063°06'0 0.0
2018-Mar-26 22:21N 18°04' W 063°06'0 0.0
2018-Mar-26 22:00N 18°04' W 063°06'0 0.0
2018-Mar-26 21:21N 18°04' W 063°06'0 0.0
2018-Mar-26 20:51N 18°04' W 063°06'0 0.0
2018-Mar-26 20:03N 18°04' W 063°06'0 0.0
2018-Mar-26 19:51N 18°04' W 063°06'0 0.0
2018-Mar-26 19:24N 18°04' W 063°06'0 0.0
2018-Mar-26 18:39N 18°04' W 063°06'0 0.0
2018-Mar-26 18:21N 18°04' W 063°06'0 0.0
2018-Mar-26 17:57N 18°04' W 063°06'0 0.0
2018-Mar-26 17:27N 18°04' W 063°06'0 0.0
2018-Mar-26 16:57N 18°04' W 063°06'0 0.0
2018-Mar-26 16:27N 18°04' W 063°06'0 0.0
2018-Mar-26 15:57N 18°04' W 063°06'0 0.0
2018-Mar-26 15:27N 18°04' W 063°06'0 0.0
2018-Mar-26 14:57N 18°04' W 063°06'0 0.0
2018-Mar-26 14:30N 18°04' W 063°06'0 0.0
2018-Mar-26 13:30N 18°04' W 063°06'0 0.0
2018-Mar-26 13:00N 18°04' W 063°06'0 0.0
2018-Mar-26 12:30N 18°04' W 063°06'0 0.0
2018-Mar-26 10:03N 18°04' W 063°06'0 0.0
2018-Mar-26 09:51N 18°04' W 063°06'0 0.0
2018-Mar-26 09:21N 18°04' W 063°06'0 0.0
2018-Mar-26 08:48N 18°04' W 063°06'0 0.0
2018-Mar-26 08:09N 18°04' W 063°06'0 0.0
2018-Mar-26 07:51N 18°04' W 063°06'0 0.0
2018-Mar-26 07:21N 18°04' W 063°06'0 0.0
2018-Mar-26 06:39N 18°04' W 063°06'0 0.0
2018-Mar-26 06:24N 18°04' W 063°06'0 0.0
2018-Mar-26 05:51N 18°04' W 063°06'0 0.0
2018-Mar-26 05:24N 18°04' W 063°06'0 0.0
2018-Mar-26 04:57N 18°04' W 063°06'0 0.0
2018-Mar-26 04:27N 18°04' W 063°06'0 0.0
2018-Mar-26 03:57N 18°04' W 063°06'0 0.0
2018-Mar-26 03:30N 18°04' W 063°06'0 0.0
2018-Mar-26 03:00N 18°04' W 063°06'0 0.0
2018-Mar-26 02:27N 18°04' W 063°06'0 0.0
2018-Mar-26 02:00N 18°04' W 063°06'0 0.0
2018-Mar-26 01:12N 18°04' W 063°06'0 0.0
2018-Mar-26 00:12N 18°04' W 063°06'0 0.0
2018-Mar-25 23:57N 18°04' W 063°06'0 0.0
2018-Mar-25 23:15N 18°04' W 063°06'0 0.0
2018-Mar-25 22:45N 18°04' W 063°06'0 0.0
2018-Mar-25 22:18N 18°04' W 063°06'0 0.0
2018-Mar-25 22:00N 18°04' W 063°06'0 0.0
2018-Mar-25 21:06N 18°04' W 063°06'0 0.0
2018-Mar-25 20:48N 18°04' W 063°06'0 0.0
2018-Mar-25 20:21N 18°04' W 063°06'0 0.0
2018-Mar-25 19:24N 18°04' W 063°06'0 0.0
2018-Mar-25 18:51N 18°04' W 063°06'0 0.0
2018-Mar-25 18:21N 18°04' W 063°06'0 0.0
2018-Mar-25 17:42N 18°04' W 063°06'0 0.0
2018-Mar-25 17:27N 18°04' W 063°06'0 0.0
2018-Mar-25 16:51N 18°04' W 063°06'0 0.0
2018-Mar-25 16:27N 18°04' W 063°06'0 0.0
2018-Mar-25 15:39N 18°04' W 063°06'0 0.0
2018-Mar-25 15:24N 18°04' W 063°06'0 0.0
2018-Mar-25 15:00N 18°04' W 063°06'0 0.0
2018-Mar-25 14:27N 18°04' W 063°06'0 0.0
2018-Mar-25 13:57N 18°04' W 063°06'0 0.0
2018-Mar-25 13:15N 18°04' W 063°06'0 0.0
2018-Mar-25 12:57N 18°04' W 063°06'0 0.0
2018-Mar-25 12:15N 18°04' W 063°06'0 0.0
2018-Mar-25 12:00N 18°04' W 063°06'0 0.0
2018-Mar-25 11:30N 18°04' W 063°06'0 0.0
2018-Mar-25 10:45N 18°04' W 063°06'0 0.0
2018-Mar-25 10:21N 18°04' W 063°06'0 0.0
2018-Mar-25 09:51N 18°04' W 063°06'0 0.0
2018-Mar-25 09:21N 18°04' W 063°06'0 0.0
2018-Mar-25 08:51N 18°04' W 063°06'0 0.0
2018-Mar-25 08:21N 18°04' W 063°06'0 0.0
2018-Mar-25 07:54N 18°04' W 063°06'0 0.0
2018-Mar-25 07:06N 18°04' W 063°06'0 0.0
2018-Mar-25 06:54N 18°04' W 063°06'0 0.0
2018-Mar-25 06:21N 18°04' W 063°06'0 0.0
2018-Mar-25 05:27N 18°04' W 063°06'0 0.0
2018-Mar-25 04:57N 18°04' W 063°06'0 0.0
2018-Mar-25 04:27N 18°04' W 063°06'0 0.0
2018-Mar-25 03:57N 18°04' W 063°06'0 0.0
2018-Mar-25 03:09N 18°04' W 063°06'0 0.0
2018-Mar-25 02:57N 18°04' W 063°06'0 0.0
2018-Mar-25 02:15N 18°04' W 063°06'0 0.0
2018-Mar-25 01:42N 18°04' W 063°06'0 0.0
2018-Mar-25 01:15N 18°04' W 063°06'0 0.0
2018-Mar-25 00:57N 18°04' W 063°06'0 0.0
2018-Mar-25 00:27N 18°04' W 063°06'0 0.0
2018-Mar-24 23:57N 18°04' W 063°06'0 0.0
2018-Mar-24 23:00N 18°04' W 063°06'0 0.0
2018-Mar-24 22:21N 18°04' W 063°06'0 0.0
2018-Mar-24 21:51N 18°04' W 063°06'0 0.0
2018-Mar-24 21:21N 18°04' W 063°06'0 0.0
2018-Mar-24 20:51N 18°04' W 063°06'0 0.0
2018-Mar-24 20:03N 18°04' W 063°06'0 0.0
2018-Mar-24 19:51N 18°04' W 063°06'0 0.1
2018-Mar-24 19:21N 18°04' W 063°06'0 0.0
2018-Mar-24 18:54N 18°04' W 063°06'0 0.0
2018-Mar-24 18:09N 18°04' W 063°06'0 0.0
2018-Mar-24 17:51N 18°04' W 063°06'0 0.0
2018-Mar-24 17:27N 18°04' W 063°06'0 0.0
2018-Mar-24 16:57N 18°04' W 063°06'0 0.0
2018-Mar-24 16:27N 18°04' W 063°06'0 0.0
2018-Mar-24 15:57N 18°04' W 063°06'0 0.0
2018-Mar-24 15:27N 18°04' W 063°06'0 0.0
2018-Mar-24 14:57N 18°04' W 063°06'0 0.0
2018-Mar-24 14:24N 18°04' W 063°06'0 0.0
2018-Mar-24 14:00N 18°04' W 063°06'0 0.0
2018-Mar-24 13:27N 18°04' W 063°06'0 0.0
2018-Mar-24 12:57N 18°04' W 063°06'0 0.0
2018-Mar-24 12:27N 18°04' W 063°06'0 0.0
2018-Mar-24 11:57N 18°04' W 063°06'0 0.0
2018-Mar-24 11:18N 18°04' W 063°06'0 0.0
2018-Mar-24 10:33N 18°04' W 063°06'0 0.0
2018-Mar-24 10:30N 18°04' W 063°06'0 0.0
2018-Mar-24 10:00N 18°04' W 063°06'0 0.0
2018-Mar-24 09:21N 18°04' W 063°06'0 0.0
2018-Mar-24 08:48N 18°04' W 063°06'0 0.0
2018-Mar-24 08:21N 18°04' W 063°06'0 0.0
2018-Mar-24 07:54N 18°04' W 063°06'0 0.0
2018-Mar-24 07:24N 18°04' W 063°06'0 0.0
2018-Mar-24 06:52N 18°04' W 063°06'0 0.0
2018-Mar-24 06:24N 18°04' W 063°06'0 0.0
2018-Mar-24 05:54N 18°04' W 063°06'0 0.0
2018-Mar-24 05:24N 18°04' W 063°06'0 0.0
2018-Mar-24 04:57N 18°04' W 063°06'0 0.0
2018-Mar-24 04:27N 18°04' W 063°06'0 0.0
2018-Mar-24 03:54N 18°04' W 063°06'0 0.0
2018-Mar-24 03:27N 18°04' W 063°06'0 0.0
2018-Mar-24 02:57N 18°04' W 063°06'0 0.0
2018-Mar-24 02:27N 18°04' W 063°06'0 0.0
2018-Mar-24 01:57N 18°04' W 063°06'0 0.0
2018-Mar-24 01:15N 18°04' W 063°06'0 0.0
2018-Mar-24 00:57N 18°04' W 063°06'0 0.0
2018-Mar-24 00:31N 18°04' W 063°06'0 0.0
2018-Mar-23 23:57N 18°04' W 063°06'0 0.0
2018-Mar-23 23:16N 18°04' W 063°06'0 0.0
2018-Mar-23 23:00N 18°04' W 063°06'0 0.0
2018-Mar-23 22:30N 18°04' W 063°06'0 0.0
2018-Mar-23 21:51N 18°04' W 063°06'0 0.0
2018-Mar-23 21:21N 18°04' W 063°06'0 0.0
2018-Mar-23 20:51N 18°04' W 063°06'0 0.0
2018-Mar-23 20:18N 18°04' W 063°06'0 0.0
2018-Mar-23 19:51N 18°04' W 063°06'0 0.0
2018-Mar-23 19:24N 18°04' W 063°06'0 0.0
2018-Mar-23 18:51N 18°04' W 063°06'0 0.0
2018-Mar-23 18:22N 18°04' W 063°06'0 0.0
2018-Mar-23 17:55N 18°04' W 063°06'0 0.0
2018-Mar-23 17:27N 18°04' W 063°06'0 0.0
2018-Mar-23 16:57N 18°04' W 063°06'0 0.0
2018-Mar-23 16:28N 18°04' W 063°06'0 0.0
2018-Mar-23 15:57N 18°04' W 063°06'0 0.0
2018-Mar-23 15:28N 18°04' W 063°06'0 0.0
2018-Mar-23 15:00N 18°04' W 063°06'0 0.0
2018-Mar-23 14:28N 18°04' W 063°06'0 0.0
2018-Mar-23 14:00N 18°04' W 063°06'0 0.0
2018-Mar-23 13:27N 18°04' W 063°06'0 0.0
2018-Mar-23 12:58N 18°04' W 063°06'0 0.0
2018-Mar-23 12:19N 18°04' W 063°06'0 0.0
2018-Mar-23 11:45N 18°04' W 063°06'0 0.0
2018-Mar-23 11:18N 18°04' W 063°06'0 0.0
2018-Mar-23 10:45N 18°04' W 063°06'0 0.0
2018-Mar-23 10:30N 18°04' W 063°06'0 0.0
2018-Mar-23 10:00N 18°04' W 063°06'0 0.0
2018-Mar-23 09:30N 18°04' W 063°06'0 0.0
2018-Mar-23 08:51N 18°04' W 063°06'0 0.0
2018-Mar-23 08:21N 18°04' W 063°06'0 0.0
2018-Mar-23 07:48N 18°04' W 063°06'0 0.0
2018-Mar-23 07:25N 18°04' W 063°06'0 0.0
2018-Mar-23 06:51N 18°04' W 063°06'0 0.0
2018-Mar-23 06:24N 18°04' W 063°06'0 0.0
2018-Mar-23 05:54N 18°04' W 063°06'0 0.0
2018-Mar-23 05:28N 18°04' W 063°06'0 0.0
2018-Mar-23 04:57N 18°04' W 063°06'0 0.0
2018-Mar-23 04:27N 18°04' W 063°06'0 0.0
2018-Mar-23 03:57N 18°04' W 063°06'0 0.0
2018-Mar-23 03:27N 18°04' W 063°06'0 0.0
2018-Mar-23 02:54N 18°04' W 063°06'0 0.0
2018-Mar-23 02:28N 18°04' W 063°06'0 0.0
2018-Mar-23 01:57N 18°04' W 063°06'0 0.0
2018-Mar-23 00:27N 18°04' W 063°06'0 0.0
2018-Mar-22 23:57N 18°04' W 063°06'0 0.0
2018-Mar-22 23:07N 18°04' W 063°06'0 0.0
2018-Mar-22 22:49N 18°04' W 063°06'0 0.0
2018-Mar-22 22:16N 18°04' W 063°06'0 0.0
2018-Mar-22 21:52N 18°04' W 063°06'0 0.0
2018-Mar-22 21:16N 18°04' W 063°06'0 0.0
2018-Mar-22 20:52N 18°04' W 063°06'0 0.0
2018-Mar-22 20:22N 18°04' W 063°06'0 0.0
2018-Mar-22 19:52N 18°04' W 063°06'0 0.0
2018-Mar-22 19:25N 18°04' W 063°06'0 0.0
2018-Mar-22 18:55N 18°04' W 063°06'0 0.0
2018-Mar-22 18:22N 18°04' W 063°06'0 0.0
2018-Mar-22 17:52N 18°04' W 063°06'0 0.0
2018-Mar-22 17:28N 18°04' W 063°06'0 0.0
2018-Mar-22 16:58N 18°04' W 063°06'0 0.0
2018-Mar-22 16:28N 18°04' W 063°06'0 0.0
2018-Mar-22 15:58N 18°04' W 063°06'0 0.0
2018-Mar-22 15:28N 18°04' W 063°06'0 0.0
2018-Mar-22 14:58N 18°04' W 063°06'0 0.0
2018-Mar-22 14:28N 18°04' W 063°06'0 0.0
2018-Mar-22 13:46N 18°04' W 063°06'0 0.0
2018-Mar-22 13:28N 18°04' W 063°06'0 0.0
2018-Mar-22 12:46N 18°04' W 063°06'0 0.0
2018-Mar-22 12:28N 18°04' W 063°06'0 0.0
2018-Mar-22 11:58N 18°04' W 063°06'0 0.0
2018-Mar-22 10:46N 18°04' W 063°06'0 0.0
2018-Mar-22 10:22N 18°04' W 063°06'0 0.0
2018-Mar-22 09:52N 18°04' W 063°06'0 0.0
2018-Mar-22 09:22N 18°04' W 063°06'0 0.0
2018-Mar-22 08:52N 18°04' W 063°06'0 0.0
2018-Mar-22 07:55N 18°04' W 063°06'0 0.0
2018-Mar-22 07:22N 18°04' W 063°06'0 0.0
2018-Mar-22 06:52N 18°04' W 063°06'0 0.0
2018-Mar-22 06:25N 18°04' W 063°06'0 0.0
2018-Mar-22 05:55N 18°04' W 063°06'0 0.0
2018-Mar-22 05:25N 18°04' W 063°06'0 0.0
2018-Mar-22 04:58N 18°04' W 063°06'0 0.0
2018-Mar-22 04:25N 18°04' W 063°06'0 0.0
2018-Mar-22 03:58N 18°04' W 063°06'0 0.0
2018-Mar-22 03:13N 18°04' W 063°06'0 0.1
2018-Mar-22 02:58N 18°04' W 063°06'0 0.0
2018-Mar-22 02:16N 18°04' W 063°06'0 0.0
2018-Mar-22 01:46N 18°04' W 063°06'0 0.0
2018-Mar-22 00:43N 18°04' W 063°06'0 0.0
2018-Mar-22 00:19N 18°04' W 063°06'0 0.0
2018-Mar-21 23:58N 18°04' W 063°06'0 0.0
2018-Mar-21 23:19N 18°04' W 063°06'0 0.0
2018-Mar-21 21:22N 18°04' W 063°06'0 0.0
2018-Mar-21 20:52N 18°04' W 063°06'0 0.0
2018-Mar-21 20:22N 18°04' W 063°06'0 0.0
2018-Mar-21 19:52N 18°04' W 063°06'0 0.0
2018-Mar-21 19:22N 18°04' W 063°06'0 0.0
2018-Mar-21 18:52N 18°04' W 063°06'0 0.0
2018-Mar-21 16:58N 18°04' W 063°06'0 0.0
2018-Mar-21 16:28N 18°04' W 063°06'0 0.0
2018-Mar-21 15:58N 18°04' W 063°06'0 0.0
2018-Mar-21 15:28N 18°04' W 063°06'0 0.0
2018-Mar-21 14:58N 18°04' W 063°06'0 0.0
2018-Mar-21 14:28N 18°04' W 063°06'0 0.0
2018-Mar-21 13:46N 18°04' W 063°06'0 0.0
2018-Mar-21 13:16N 18°04' W 063°06'0 0.0
2018-Mar-21 12:58N 18°04' W 063°06'0 0.0
2018-Mar-21 12:28N 18°04' W 063°06'0 0.0
2018-Mar-21 11:58N 18°04' W 063°06'0 0.0
2018-Mar-21 10:34N 18°04' W 063°06'0 0.0
2018-Mar-21 10:22N 18°04' W 063°06'0 0.0
2018-Mar-21 09:52N 18°04' W 063°06'0 0.0
2018-Mar-21 09:16N 18°04' W 063°06'0 0.0
2018-Mar-21 08:37N 18°04' W 063°06'0 0.0
2018-Mar-21 08:22N 18°04' W 063°06'0 0.0
2018-Mar-21 07:55N 18°04' W 063°06'0 0.0
2018-Mar-21 07:25N 18°04' W 063°06'0 0.0
2018-Mar-21 06:55N 18°04' W 063°06'0 0.0
2018-Mar-21 05:55N 18°04' W 063°06'0 0.0
2018-Mar-21 05:22N 18°04' W 063°06'0 0.0
2018-Mar-21 04:58N 18°04' W 063°06'0 0.0
2018-Mar-21 04:25N 18°04' W 063°06'0 0.0
2018-Mar-21 03:10N 18°04' W 063°06'0 0.0
2018-Mar-21 02:58N 18°04' W 063°06'0 0.0
2018-Mar-21 02:16N 18°04' W 063°06'0 0.0
2018-Mar-21 01:58N 18°04' W 063°06'0 0.0
2018-Mar-21 01:13N 18°04' W 063°06'0 0.0
2018-Mar-21 00:13N 18°04' W 063°06'0 0.0
2018-Mar-20 23:46N 18°04' W 063°06'0 0.0
2018-Mar-20 23:04N 18°04' W 063°06'0 0.0
2018-Mar-20 22:46N 18°04' W 063°06'0 0.0
2018-Mar-20 22:16N 18°04' W 063°06'0 0.0
2018-Mar-20 21:52N 18°04' W 063°06'0 0.0
2018-Mar-20 21:22N 18°04' W 063°06'0 0.0
2018-Mar-20 20:52N 18°04' W 063°06'0 0.0
2018-Mar-20 20:19N 18°04' W 063°06'0 0.0
2018-Mar-20 19:52N 18°04' W 063°06'0 0.0
2018-Mar-20 19:22N 18°04' W 063°06'0 0.0
2018-Mar-20 18:52N 18°04' W 063°06'0 0.0
2018-Mar-20 18:22N 18°04' W 063°06'0 0.0
2018-Mar-20 17:55N 18°04' W 063°06'0 0.0
2018-Mar-20 17:11N 18°04' W 063°06'0 0.0
2018-Mar-20 16:52N 18°04' W 063°06'0 0.0
2018-Mar-20 16:25N 18°04' W 063°06'0 0.0
2018-Mar-20 15:58N 18°04' W 063°06'0 0.0
2018-Mar-20 15:25N 18°04' W 063°06'0 0.0
2018-Mar-20 14:40N 18°04' W 063°06'0 0.0
2018-Mar-20 14:28N 18°04' W 063°06'0 0.0
2018-Mar-20 13:58N 18°04' W 063°06'0 0.0
2018-Mar-20 13:28N 18°04' W 063°06'0 0.0
2018-Mar-20 12:58N 18°04' W 063°06'0 0.0
2018-Mar-20 12:28N 18°04' W 063°06'0 0.0
2018-Mar-20 11:58N 18°04' W 063°06'0 0.0
2018-Mar-20 11:28N 18°04' W 063°06'0 0.0
2018-Mar-20 10:49N 18°04' W 063°06'0 0.0
2018-Mar-20 10:28N 18°04' W 063°06'0 0.0
2018-Mar-20 09:58N 18°04' W 063°06'0 0.0
2018-Mar-20 09:19N 18°04' W 063°06'0 0.0
2018-Mar-20 08:49N 18°04' W 063°06'0 0.0
2018-Mar-20 08:16N 18°04' W 063°06'0 0.0
2018-Mar-20 07:52N 18°04' W 063°06'0 0.0
2018-Mar-20 07:22N 18°04' W 063°06'0 0.0
2018-Mar-20 06:52N 18°04' W 063°06'0 0.0
2018-Mar-20 06:19N 18°04' W 063°06'0 0.0
2018-Mar-20 05:52N 18°04' W 063°06'0 0.0
2018-Mar-20 05:22N 18°04' W 063°06'0 0.0
2018-Mar-20 04:52N 18°04' W 063°06'0 0.0
2018-Mar-20 04:25N 18°04' W 063°06'0 0.0
2018-Mar-20 03:55N 18°04' W 063°06'0 0.0
2018-Mar-20 03:25N 18°04' W 063°06'0 0.0
2018-Mar-20 02:58N 18°04' W 063°06'0 0.0
2018-Mar-20 02:28N 18°04' W 063°06'0 0.0
2018-Mar-20 01:58N 18°04' W 063°06'0 0.0
2018-Mar-20 01:28N 18°04' W 063°06'0 0.0
2018-Mar-20 00:58N 18°04' W 063°06'0 0.0
2018-Mar-20 00:28N 18°04' W 063°06'0 0.0
2018-Mar-19 23:55N 18°04' W 063°06'0 0.0
2018-Mar-19 23:28N 18°04' W 063°06'0 0.0
2018-Mar-19 22:46N 18°04' W 063°06'0 0.0
2018-Mar-19 22:16N 18°04' W 063°06'0 0.0
2018-Mar-19 21:49N 18°04' W 063°06'0 0.0
2018-Mar-19 21:16N 18°04' W 063°06'0 0.0
2018-Mar-19 20:46N 18°04' W 063°06'0 0.0
2018-Mar-19 20:19N 18°04' W 063°06'0 0.0
2018-Mar-19 19:46N 18°04' W 063°06'0 0.0
2018-Mar-19 19:22N 18°04' W 063°06'0 0.0
2018-Mar-19 18:52N 18°04' W 063°06'0 0.0
2018-Mar-19 18:19N 18°04' W 063°06'  
Track history (hours):
 
Tides and Currents Weather Stations Pressure Air Temp Water Temp Dewpoint Dewpoint Depression Visibility Wind Speed Wind Dir Waves Ship Positions

Latino

Last reported at 2018-Mar-29 18:07 UTC. Time now 2018-Apr-21 00:26 UTC.
Position N 17°57' W 062°58'.
Warning: this ship's position is 22 days out of date.

Length 12 m.

Type: Sailing vessel. MMSI: 205413010.

Date/timePositionNaut miles runAvg speedWind from/ knotsBaromVisibWave heightAir tempDewpointWater temp
2018-Mar-29 18:07N 17°57' W 062°58'1 6.6
2018-Mar-29 17:55N 17°57' W 062°60'3 6.8
2018-Mar-29 17:26N 17°59' W 063°03'4 6.9
2018-Mar-29 16:55N 18°00' W 063°06'3 6.2
2018-Mar-29 16:24N 18°02' W 063°09'2 5.3
2018-Mar-29 16:00N 18°04' W 063°10'3 5.9
2018-Mar-29 15:30N 18°05' W 063°07'2 2.9
2018-Mar-29 14:54N 18°04' W 063°06'0 0.0
2018-Mar-29 14:24N 18°04' W 063°06'0 0.0
2018-Mar-29 13:54N 18°04' W 063°06'0 0.0
2018-Mar-29 13:30N 18°04' W 063°06'0 0.0
2018-Mar-29 13:00N 18°04' W 063°06'0 0.0
2018-Mar-29 12:27N 18°04' W 063°06'0 0.0
2018-Mar-29 11:52N 18°04' W 063°06'0 0.0
2018-Mar-29 11:30N 18°04' W 063°06'0 0.0
2018-Mar-29 10:47N 18°04' W 063°06'0 0.0
2018-Mar-29 10:30N 18°04' W 063°06'0 0.0
2018-Mar-29 09:50N 18°04' W 063°06'0 0.0
2018-Mar-29 09:20N 18°04' W 063°06'0 0.0
2018-Mar-29 09:00N 18°04' W 063°06'0 0.0
2018-Mar-29 08:07N 18°04' W 063°06'0 0.0
2018-Mar-29 07:50N 18°04' W 063°06'0 0.0
2018-Mar-29 07:16N 18°04' W 063°06'0 0.0
2018-Mar-29 06:48N 18°04' W 063°06'0 0.0
2018-Mar-29 06:27N 18°04' W 063°06'0 0.0
2018-Mar-29 05:52N 18°04' W 063°06'0 0.0
2018-Mar-29 05:22N 18°04' W 063°06'0 0.0
2018-Mar-29 05:00N 18°04' W 063°06'0 0.0
2018-Mar-29 04:30N 18°04' W 063°06'0 0.0
2018-Mar-29 03:50N 18°04' W 063°06'0 0.0
2018-Mar-29 03:30N 18°04' W 063°06'0 0.0
2018-Mar-29 03:00N 18°04' W 063°06'0 0.0
2018-Mar-29 02:23N 18°04' W 063°06'0 0.0
2018-Mar-29 01:48N 18°04' W 063°06'0 0.0
2018-Mar-29 01:27N 18°04' W 063°06'0 0.0
2018-Mar-29 00:52N 18°04' W 063°06'0 0.0
2018-Mar-29 00:23N 18°04' W 063°06'0 0.0
2018-Mar-28 23:47N 18°04' W 063°06'0 0.0
2018-Mar-28 23:29N 18°04' W 063°06'0 0.0
2018-Mar-28 22:47N 18°04' W 063°06'0 0.0
2018-Mar-28 22:29N 18°04' W 063°06'0 0.0
2018-Mar-28 21:50N 18°04' W 063°06'0 0.0
2018-Mar-28 21:20N 18°04' W 063°06'0 0.0
2018-Mar-28 20:50N 18°04' W 063°06'0 0.0
2018-Mar-28 20:20N 18°04' W 063°06'0 0.0
2018-Mar-28 19:38N 18°04' W 063°06'0 0.0
2018-Mar-28 19:17N 18°04' W 063°06'0 0.0
2018-Mar-28 18:53N 18°04' W 063°06'0 0.0
2018-Mar-28 18:24N 18°04' W 063°06'0 0.0
2018-Mar-28 17:53N 18°04' W 063°06'0 0.0
2018-Mar-28 17:09N 18°04' W 063°06'0 0.0
2018-Mar-28 16:56N 18°04' W 063°06'0 0.0
2018-Mar-28 16:26N 18°04' W 063°06'0 0.0
2018-Mar-28 15:56N 18°04' W 063°06'0 0.0
2018-Mar-28 15:26N 18°04' W 063°06'0 0.0
2018-Mar-28 14:53N 18°04' W 063°06'0 0.0
2018-Mar-28 14:14N 18°04' W 063°06'0 0.0
2018-Mar-28 13:59N 18°04' W 063°06'0 0.0
2018-Mar-28 13:02N 18°04' W 063°06'0 0.0
2018-Mar-28 12:59N 18°04' W 063°06'0 0.0
2018-Mar-28 12:30N 18°04' W 063°06'0 0.0
2018-Mar-28 11:32N 18°04' W 063°06'0 0.0
2018-Mar-28 11:29N 18°04' W 063°06'0 0.0
2018-Mar-28 10:59N 18°04' W 063°06'0 0.0
2018-Mar-28 10:29N 18°04' W 063°06'0 0.0
2018-Mar-28 09:50N 18°04' W 063°06'0 0.0
2018-Mar-28 09:20N 18°04' W 063°06'0 0.0
2018-Mar-28 08:50N 18°04' W 063°06'0 0.0
2018-Mar-28 08:23N 18°04' W 063°06'0 0.0
2018-Mar-28 07:54N 18°04' W 063°06'0 0.0
2018-Mar-28 07:23N 18°04' W 063°06'0 0.0
2018-Mar-28 06:54N 18°04' W 063°06'0 0.0
2018-Mar-28 06:26N 18°04' W 063°06'0 0.0
2018-Mar-28 05:41N 18°04' W 063°06'0 0.0
2018-Mar-28 05:23N 18°04' W 063°06'0 0.0
2018-Mar-28 04:53N 18°04' W 063°06'0 0.0
2018-Mar-28 04:26N 18°04' W 063°06'0 0.0
2018-Mar-28 03:56N 18°04' W 063°06'0 0.0
2018-Mar-28 03:29N 18°04' W 063°06'0 0.0
2018-Mar-28 02:59N 18°04' W 063°06'0 0.0
2018-Mar-28 02:29N 18°04' W 063°06'0 0.0
2018-Mar-28 01:44N 18°04' W 063°06'0 0.0
2018-Mar-28 01:30N 18°04' W 063°06'0 0.0
2018-Mar-28 00:57N 18°04' W 063°06'0 0.0
2018-Mar-28 00:30N 18°04' W 063°06'0 0.0
2018-Mar-27 23:59N 18°04' W 063°06'0 0.0
2018-Mar-27 23:29N 18°04' W 063°06'0 0.0
2018-Mar-27 23:00N 18°04' W 063°06'0 0.0
2018-Mar-27 22:29N 18°04' W 063°06'0 0.0
2018-Mar-27 21:48N 18°04' W 063°06'0 0.0
2018-Mar-27 21:20N 18°04' W 063°06'0 0.0
2018-Mar-27 20:54N 18°04' W 063°06'0 0.0
2018-Mar-27 20:23N 18°04' W 063°06'0 0.0
2018-Mar-27 19:53N 18°04' W 063°06'0 0.0
2018-Mar-27 19:24N 18°04' W 063°06'0 0.0
2018-Mar-27 18:53N 18°04' W 063°06'0 0.0
2018-Mar-27 18:23N 18°04' W 063°06'0 0.0
2018-Mar-27 17:57N 18°04' W 063°06'0 0.0
2018-Mar-27 17:27N 18°04' W 063°06'0 0.0
2018-Mar-27 16:56N 18°04' W 063°06'0 0.0
2018-Mar-27 16:27N 18°04' W 063°06'0 0.0
2018-Mar-27 15:57N 18°04' W 063°06'0 0.0
2018-Mar-27 15:27N 18°04' W 063°06'0 0.0
2018-Mar-27 14:57N 18°04' W 063°06'0 0.0
2018-Mar-27 14:27N 18°04' W 063°06'0 0.0
2018-Mar-27 13:30N 18°04' W 063°06'0 0.0
2018-Mar-27 12:57N 18°04' W 063°06'0 0.0
2018-Mar-27 12:27N 18°04' W 063°06'0 0.0
2018-Mar-27 12:00N 18°04' W 063°06'0 0.0
2018-Mar-27 10:30N 18°04' W 063°06'0 0.0
2018-Mar-27 09:51N 18°04' W 063°06'0 0.0
2018-Mar-27 09:21N 18°04' W 063°06'0 0.0
2018-Mar-27 08:51N 18°04' W 063°06'0 0.0
2018-Mar-27 08:21N 18°04' W 063°06'0 0.0
2018-Mar-27 07:51N 18°04' W 063°06'0 0.0
2018-Mar-27 07:24N 18°04' W 063°06'0 0.0
2018-Mar-27 06:54N 18°04' W 063°06'0 0.0
2018-Mar-27 06:21N 18°04' W 063°06'0 0.0
2018-Mar-27 05:57N 18°04' W 063°06'0 0.0
2018-Mar-27 05:27N 18°04' W 063°06'0 0.0
2018-Mar-27 04:57N 18°04' W 063°06'0 0.0
2018-Mar-27 04:27N 18°04' W 063°06'0 0.0
2018-Mar-27 03:57N 18°04' W 063°06'0 0.0
2018-Mar-27 03:15N 18°04' W 063°06'0 0.0
2018-Mar-27 02:57N 18°04' W 063°06'0 0.0
2018-Mar-27 02:30N 18°04' W 063°06'0 0.0
2018-Mar-27 01:57N 18°04' W 063°06'0 0.0
2018-Mar-27 01:30N 18°04' W 063°06'0 0.0
2018-Mar-27 01:00N 18°04' W 063°06'0 0.0
2018-Mar-27 00:30N 18°04' W 063°06'0 0.0
2018-Mar-27 00:00N 18°04' W 063°06'0 0.0
2018-Mar-26 23:18N 18°04' W 063°06'0 0.0
2018-Mar-26 23:00N 18°04' W 063°06'0 0.0
2018-Mar-26 22:21N 18°04' W 063°06'0 0.0
2018-Mar-26 22:00N 18°04' W 063°06'0 0.0
2018-Mar-26 21:21N 18°04' W 063°06'0 0.0
2018-Mar-26 20:51N 18°04' W 063°06'0 0.0
2018-Mar-26 20:03N 18°04' W 063°06'0 0.0
2018-Mar-26 19:51N 18°04' W 063°06'0 0.0
2018-Mar-26 19:24N 18°04' W 063°06'0 0.0
2018-Mar-26 18:39N 18°04' W 063°06'0 0.0
2018-Mar-26 18:21N 18°04' W 063°06'0 0.0
2018-Mar-26 17:57N 18°04' W 063°06'0 0.0
2018-Mar-26 17:27N 18°04' W 063°06'0 0.0
2018-Mar-26 16:57N 18°04' W 063°06'0 0.0
2018-Mar-26 16:27N 18°04' W 063°06'0 0.0
2018-Mar-26 15:57N 18°04' W 063°06'0 0.0
2018-Mar-26 15:27N 18°04' W 063°06'0 0.0
2018-Mar-26 14:57N 18°04' W 063°06'0 0.0
2018-Mar-26 14:30N 18°04' W 063°06'0 0.0
2018-Mar-26 13:30N 18°04' W 063°06'0 0.0
2018-Mar-26 13:00N 18°04' W 063°06'0 0.0
2018-Mar-26 12:30N 18°04' W 063°06'0 0.0
2018-Mar-26 10:03N 18°04' W 063°06'0 0.0
2018-Mar-26 09:51N 18°04' W 063°06'0 0.0
2018-Mar-26 09:21N 18°04' W 063°06'0 0.0
2018-Mar-26 08:48N 18°04' W 063°06'0 0.0
2018-Mar-26 08:09N 18°04' W 063°06'0 0.0
2018-Mar-26 07:51N 18°04' W 063°06'0 0.0
2018-Mar-26 07:21N 18°04' W 063°06'0 0.0
2018-Mar-26 06:39N 18°04' W 063°06'0 0.0
2018-Mar-26 06:24N 18°04' W 063°06'0 0.0
2018-Mar-26 05:51N 18°04' W 063°06'0 0.0
2018-Mar-26 05:24N 18°04' W 063°06'0 0.0
2018-Mar-26 04:57N 18°04' W 063°06'0 0.0
2018-Mar-26 04:27N 18°04' W 063°06'0 0.0
2018-Mar-26 03:57N 18°04' W 063°06'0 0.0
2018-Mar-26 03:30N 18°04' W 063°06'0 0.0
2018-Mar-26 03:00N 18°04' W 063°06'0 0.0
2018-Mar-26 02:27N 18°04' W 063°06'0 0.0
2018-Mar-26 02:00N 18°04' W 063°06'0 0.0
2018-Mar-26 01:12N 18°04' W 063°06'0 0.0
2018-Mar-26 00:12N 18°04' W 063°06'0 0.0
2018-Mar-25 23:57N 18°04' W 063°06'0 0.0
2018-Mar-25 23:15N 18°04' W 063°06'0 0.0
2018-Mar-25 22:45N 18°04' W 063°06'0 0.0
2018-Mar-25 22:18N 18°04' W 063°06'0 0.0
2018-Mar-25 22:00N 18°04' W 063°06'0 0.0
2018-Mar-25 21:06N 18°04' W 063°06'0 0.0
2018-Mar-25 20:48N 18°04' W 063°06'0 0.0
2018-Mar-25 20:21N 18°04' W 063°06'0 0.0
2018-Mar-25 19:24N 18°04' W 063°06'0 0.0
2018-Mar-25 18:51N 18°04' W 063°06'0 0.0
2018-Mar-25 18:21N 18°04' W 063°06'0 0.0
2018-Mar-25 17:42N 18°04' W 063°06'0 0.0
2018-Mar-25 17:27N 18°04' W 063°06'0 0.0
2018-Mar-25 16:51N 18°04' W 063°06'0 0.0
2018-Mar-25 16:27N 18°04' W 063°06'0 0.0
2018-Mar-25 15:39N 18°04' W 063°06'0 0.0
2018-Mar-25 15:24N 18°04' W 063°06'0 0.0
2018-Mar-25 15:00N 18°04' W 063°06'0 0.0
2018-Mar-25 14:27N 18°04' W 063°06'0 0.0
2018-Mar-25 13:57N 18°04' W 063°06'0 0.0
2018-Mar-25 13:15N 18°04' W 063°06'0 0.0
2018-Mar-25 12:57N 18°04' W 063°06'0 0.0
2018-Mar-25 12:15N 18°04' W 063°06'0 0.0
2018-Mar-25 12:00N 18°04' W 063°06'0 0.0
2018-Mar-25 11:30N 18°04' W 063°06'0 0.0
2018-Mar-25 10:45N 18°04' W 063°06'0 0.0
2018-Mar-25 10:21N 18°04' W 063°06'0 0.0
2018-Mar-25 09:51N 18°04' W 063°06'0 0.0
2018-Mar-25 09:21N 18°04' W 063°06'0 0.0
2018-Mar-25 08:51N 18°04' W 063°06'0 0.0
2018-Mar-25 08:21N 18°04' W 063°06'0 0.0
2018-Mar-25 07:54N 18°04' W 063°06'0 0.0
2018-Mar-25 07:06N 18°04' W 063°06'0 0.0
2018-Mar-25 06:54N 18°04' W 063°06'0 0.0
2018-Mar-25 06:21N 18°04' W 063°06'0 0.0
2018-Mar-25 05:27N 18°04' W 063°06'0 0.0
2018-Mar-25 04:57N 18°04' W 063°06'0 0.0
2018-Mar-25 04:27N 18°04' W 063°06'0 0.0
2018-Mar-25 03:57N 18°04' W 063°06'0 0.0
2018-Mar-25 03:09N 18°04' W 063°06'0 0.0
2018-Mar-25 02:57N 18°04' W 063°06'0 0.0
2018-Mar-25 02:15N 18°04' W 063°06'0 0.0
2018-Mar-25 01:42N 18°04' W 063°06'0 0.0
2018-Mar-25 01:15N 18°04' W 063°06'0 0.0
2018-Mar-25 00:57N 18°04' W 063°06'0 0.0
2018-Mar-25 00:27N 18°04' W 063°06'0 0.0
2018-Mar-24 23:57N 18°04' W 063°06'0 0.0
2018-Mar-24 23:00N 18°04' W 063°06'0 0.0
2018-Mar-24 22:21N 18°04' W 063°06'0 0.0
2018-Mar-24 21:51N 18°04' W 063°06'0 0.0
2018-Mar-24 21:21N 18°04' W 063°06'0 0.0
2018-Mar-24 20:51N 18°04' W 063°06'0 0.0
2018-Mar-24 20:03N 18°04' W 063°06'0 0.0
2018-Mar-24 19:51N 18°04' W 063°06'0 0.1
2018-Mar-24 19:21N 18°04' W 063°06'0 0.0
2018-Mar-24 18:54N 18°04' W 063°06'0 0.0
2018-Mar-24 18:09N 18°04' W 063°06'0 0.0
2018-Mar-24 17:51N 18°04' W 063°06'0 0.0
2018-Mar-24 17:27N 18°04' W 063°06'0 0.0
2018-Mar-24 16:57N 18°04' W 063°06'0 0.0
2018-Mar-24 16:27N 18°04' W 063°06'0 0.0
2018-Mar-24 15:57N 18°04' W 063°06'0 0.0
2018-Mar-24 15:27N 18°04' W 063°06'0 0.0
2018-Mar-24 14:57N 18°04' W 063°06'0 0.0
2018-Mar-24 14:24N 18°04' W 063°06'0 0.0
2018-Mar-24 14:00N 18°04' W 063°06'0 0.0
2018-Mar-24 13:27N 18°04' W 063°06'0 0.0
2018-Mar-24 12:57N 18°04' W 063°06'0 0.0
2018-Mar-24 12:27N 18°04' W 063°06'0 0.0
2018-Mar-24 11:57N 18°04' W 063°06'0 0.0
2018-Mar-24 11:18N 18°04' W 063°06'0 0.0
2018-Mar-24 10:33N 18°04' W 063°06'0 0.0
2018-Mar-24 10:30N 18°04' W 063°06'0 0.0
2018-Mar-24 10:00N 18°04' W 063°06'0 0.0
2018-Mar-24 09:21N 18°04' W 063°06'0 0.0
2018-Mar-24 08:48N 18°04' W 063°06'0 0.0
2018-Mar-24 08:21N 18°04' W 063°06'0 0.0
2018-Mar-24 07:54N 18°04' W 063°06'0 0.0
2018-Mar-24 07:24N 18°04' W 063°06'0 0.0
2018-Mar-24 06:52N 18°04' W 063°06'0 0.0
2018-Mar-24 06:24N 18°04' W 063°06'0 0.0
2018-Mar-24 05:54N 18°04' W 063°06'0 0.0
2018-Mar-24 05:24N 18°04' W 063°06'0 0.0
2018-Mar-24 04:57N 18°04' W 063°06'0 0.0
2018-Mar-24 04:27N 18°04' W 063°06'0 0.0
2018-Mar-24 03:54N 18°04' W 063°06'0 0.0
2018-Mar-24 03:27N 18°04' W 063°06'0 0.0
2018-Mar-24 02:57N 18°04' W 063°06'0 0.0
2018-Mar-24 02:27N 18°04' W 063°06'0 0.0
2018-Mar-24 01:57N 18°04' W 063°06'0 0.0
2018-Mar-24 01:15N 18°04' W 063°06'0 0.0
2018-Mar-24 00:57N 18°04' W 063°06'0 0.0
2018-Mar-24 00:31N 18°04' W 063°06'0 0.0
2018-Mar-23 23:57N 18°04' W 063°06'0 0.0
2018-Mar-23 23:16N 18°04' W 063°06'0 0.0
2018-Mar-23 23:00N 18°04' W 063°06'0 0.0
2018-Mar-23 22:30N 18°04' W 063°06'0 0.0
2018-Mar-23 21:51N 18°04' W 063°06'0 0.0
2018-Mar-23 21:21N 18°04' W 063°06'0 0.0
2018-Mar-23 20:51N 18°04' W 063°06'0 0.0
2018-Mar-23 20:18N 18°04' W 063°06'0 0.0
2018-Mar-23 19:51N 18°04' W 063°06'0 0.0
2018-Mar-23 19:24N 18°04' W 063°06'0 0.0
2018-Mar-23 18:51N 18°04' W 063°06'0 0.0
2018-Mar-23 18:22N 18°04' W 063°06'0 0.0
2018-Mar-23 17:55N 18°04' W 063°06'0 0.0
2018-Mar-23 17:27N 18°04' W 063°06'0 0.0
2018-Mar-23 16:57N 18°04' W 063°06'0 0.0
2018-Mar-23 16:28N 18°04' W 063°06'0 0.0
2018-Mar-23 15:57N 18°04' W 063°06'0 0.0
2018-Mar-23 15:28N 18°04' W 063°06'0 0.0
2018-Mar-23 15:00N 18°04' W 063°06'0 0.0
2018-Mar-23 14:28N 18°04' W 063°06'0 0.0
2018-Mar-23 14:00N 18°04' W 063°06'0 0.0
2018-Mar-23 13:27N 18°04' W 063°06'0 0.0
2018-Mar-23 12:58N 18°04' W 063°06'0 0.0
2018-Mar-23 12:19N 18°04' W 063°06'0 0.0
2018-Mar-23 11:45N 18°04' W 063°06'0 0.0
2018-Mar-23 11:18N 18°04' W 063°06'0 0.0
2018-Mar-23 10:45N 18°04' W 063°06'0 0.0
2018-Mar-23 10:30N 18°04' W 063°06'0 0.0
2018-Mar-23 10:00N 18°04' W 063°06'0 0.0
2018-Mar-23 09:30N 18°04' W 063°06'0 0.0
2018-Mar-23 08:51N 18°04' W 063°06'0 0.0
2018-Mar-23 08:21N 18°04' W 063°06'0 0.0
2018-Mar-23 07:48N 18°04' W 063°06'0 0.0
2018-Mar-23 07:25N 18°04' W 063°06'0 0.0
2018-Mar-23 06:51N 18°04' W 063°06'0 0.0
2018-Mar-23 06:24N 18°04' W 063°06'0 0.0
2018-Mar-23 05:54N 18°04' W 063°06'0 0.0
2018-Mar-23 05:28N 18°04' W 063°06'0 0.0
2018-Mar-23 04:57N 18°04' W 063°06'0 0.0
2018-Mar-23 04:27N 18°04' W 063°06'0 0.0
2018-Mar-23 03:57N 18°04' W 063°06'0 0.0
2018-Mar-23 03:27N 18°04' W 063°06'0 0.0
2018-Mar-23 02:54N 18°04' W 063°06'0 0.0
2018-Mar-23 02:28N 18°04' W 063°06'0 0.0
2018-Mar-23 01:57N 18°04' W 063°06'0 0.0
2018-Mar-23 00:27N 18°04' W 063°06'0 0.0
2018-Mar-22 23:57N 18°04' W 063°06'0 0.0
2018-Mar-22 23:07N 18°04' W 063°06'0 0.0
2018-Mar-22 22:49N 18°04' W 063°06'0 0.0
2018-Mar-22 22:16N 18°04' W 063°06'0 0.0
2018-Mar-22 21:52N 18°04' W 063°06'0 0.0
2018-Mar-22 21:16N 18°04' W 063°06'0 0.0
2018-Mar-22 20:52N 18°04' W 063°06'0 0.0
2018-Mar-22 20:22N 18°04' W 063°06'0 0.0
2018-Mar-22 19:52N 18°04' W 063°06'0 0.0
2018-Mar-22 19:25N 18°04' W 063°06'0 0.0
2018-Mar-22 18:55N 18°04' W 063°06'0 0.0
2018-Mar-22 18:22N 18°04' W 063°06'0 0.0
2018-Mar-22 17:52N 18°04' W 063°06'0 0.0
2018-Mar-22 17:28N 18°04' W 063°06'0 0.0
2018-Mar-22 16:58N 18°04' W 063°06'0 0.0
2018-Mar-22 16:28N 18°04' W 063°06'0 0.0
2018-Mar-22 15:58N 18°04' W 063°06'0 0.0
2018-Mar-22 15:28N 18°04' W 063°06'0 0.0
2018-Mar-22 14:58N 18°04' W 063°06'0 0.0
2018-Mar-22 14:28N 18°04' W 063°06'0 0.0
2018-Mar-22 13:46N 18°04' W 063°06'0 0.0
2018-Mar-22 13:28N 18°04' W 063°06'0 0.0
2018-Mar-22 12:46N 18°04' W 063°06'0 0.0
2018-Mar-22 12:28N 18°04' W 063°06'0 0.0
2018-Mar-22 11:58N 18°04' W 063°06'0 0.0
2018-Mar-22 10:46N 18°04' W 063°06'0 0.0
2018-Mar-22 10:22N 18°04' W 063°06'0 0.0
2018-Mar-22 09:52N 18°04' W 063°06'0 0.0
2018-Mar-22 09:22N 18°04' W 063°06'0 0.0
2018-Mar-22 08:52N 18°04' W 063°06'0 0.0
2018-Mar-22 07:55N 18°04' W 063°06'0 0.0
2018-Mar-22 07:22N 18°04' W 063°06'0 0.0
2018-Mar-22 06:52N 18°04' W 063°06'0 0.0
2018-Mar-22 06:25N 18°04' W 063°06'0 0.0
2018-Mar-22 05:55N 18°04' W 063°06'0 0.0
2018-Mar-22 05:25N 18°04' W 063°06'0 0.0
2018-Mar-22 04:58N 18°04' W 063°06'0 0.0
2018-Mar-22 04:25N 18°04' W 063°06'0 0.0
2018-Mar-22 03:58N 18°04' W 063°06'0 0.0
2018-Mar-22 03:13N 18°04' W 063°06'0 0.1
2018-Mar-22 02:58N 18°04' W 063°06'0 0.0
2018-Mar-22 02:16N 18°04' W 063°06'0 0.0
2018-Mar-22 01:46N 18°04' W 063°06'0 0.0
2018-Mar-22 00:43N 18°04' W 063°06'0 0.0
2018-Mar-22 00:19N 18°04' W 063°06'0 0.0
2018-Mar-21 23:58N 18°04' W 063°06'0 0.0
2018-Mar-21 23:19N 18°04' W 063°06'0 0.0
2018-Mar-21 21:22N 18°04' W 063°06'0 0.0
2018-Mar-21 20:52N 18°04' W 063°06'0 0.0
2018-Mar-21 20:22N 18°04' W 063°06'0 0.0
2018-Mar-21 19:52N 18°04' W 063°06'0 0.0
2018-Mar-21 19:22N 18°04' W 063°06'0 0.0
2018-Mar-21 18:52N 18°04' W 063°06'0 0.0
2018-Mar-21 16:58N 18°04' W 063°06'0 0.0
2018-Mar-21 16:28N 18°04' W 063°06'0 0.0
2018-Mar-21 15:58N 18°04' W 063°06'0 0.0
2018-Mar-21 15:28N 18°04' W 063°06'0 0.0
2018-Mar-21 14:58N 18°04' W 063°06'0 0.0
2018-Mar-21 14:28N 18°04' W 063°06'0 0.0
2018-Mar-21 13:46N 18°04' W 063°06'0 0.0
2018-Mar-21 13:16N 18°04' W 063°06'0 0.0
2018-Mar-21 12:58N 18°04' W 063°06'0 0.0
2018-Mar-21 12:28N 18°04' W 063°06'0 0.0
2018-Mar-21 11:58N 18°04' W 063°06'0 0.0
2018-Mar-21 10:34N 18°04' W 063°06'0 0.0
2018-Mar-21 10:22N 18°04' W 063°06'0 0.0
2018-Mar-21 09:52N 18°04' W 063°06'0 0.0
2018-Mar-21 09:16N 18°04' W 063°06'0 0.0
2018-Mar-21 08:37N 18°04' W 063°06'0 0.0
2018-Mar-21 08:22N 18°04' W 063°06'0 0.0
2018-Mar-21 07:55N 18°04' W 063°06'0 0.0
2018-Mar-21 07:25N 18°04' W 063°06'0 0.0
2018-Mar-21 06:55N 18°04' W 063°06'0 0.0
2018-Mar-21 05:55N 18°04' W 063°06'0 0.0
2018-Mar-21 05:22N 18°04' W 063°06'0 0.0
2018-Mar-21 04:58N 18°04' W 063°06'0 0.0
2018-Mar-21 04:25N 18°04' W 063°06'0 0.0
2018-Mar-21 03:10N 18°04' W 063°06'0 0.0
2018-Mar-21 02:58N 18°04' W 063°06'0 0.0
2018-Mar-21 02:16N 18°04' W 063°06'0 0.0
2018-Mar-21 01:58N 18°04' W 063°06'0 0.0
2018-Mar-21 01:13N 18°04' W 063°06'0 0.0
2018-Mar-21 00:13N 18°04' W 063°06'0 0.0
2018-Mar-20 23:46N 18°04' W 063°06'0 0.0
2018-Mar-20 23:04N 18°04' W 063°06'0 0.0
2018-Mar-20 22:46N 18°04' W 063°06'0 0.0
2018-Mar-20 22:16N 18°04' W 063°06'0 0.0
2018-Mar-20 21:52N 18°04' W 063°06'0 0.0
2018-Mar-20 21:22N 18°04' W 063°06'0 0.0
2018-Mar-20 20:52N 18°04' W 063°06'0 0.0
2018-Mar-20 20:19N 18°04' W 063°06'0 0.0
2018-Mar-20 19:52N 18°04' W 063°06'0 0.0
2018-Mar-20 19:22N 18°04' W 063°06'0 0.0
2018-Mar-20 18:52N 18°04' W 063°06'0 0.0
2018-Mar-20 18:22N 18°04' W 063°06'0 0.0
2018-Mar-20 17:55N 18°04' W 063°06'0 0.0
2018-Mar-20 17:11N 18°04' W 063°06'0 0.0
2018-Mar-20 16:52N 18°04' W 063°06'0 0.0
2018-Mar-20 16:25N 18°04' W 063°06'0 0.0
2018-Mar-20 15:58N 18°04' W 063°06'0 0.0
2018-Mar-20 15:25N 18°04' W 063°06'0 0.0
2018-Mar-20 14:40N 18°04' W 063°06'0 0.0
2018-Mar-20 14:28N 18°04' W 063°06'0 0.0
2018-Mar-20 13:58N 18°04' W 063°06'0 0.0
2018-Mar-20 13:28N 18°04' W 063°06'0 0.0
2018-Mar-20 12:58N 18°04' W 063°06'0 0.0
2018-Mar-20 12:28N 18°04' W 063°06'0 0.0
2018-Mar-20 11:58N 18°04' W 063°06'0 0.0
2018-Mar-20 11:28N 18°04' W 063°06'0 0.0
2018-Mar-20 10:49N 18°04' W 063°06'0 0.0
2018-Mar-20 10:28N 18°04' W 063°06'0 0.0
2018-Mar-20 09:58N 18°04' W 063°06'0 0.0
2018-Mar-20 09:19N 18°04' W 063°06'0 0.0
2018-Mar-20 08:49N 18°04' W 063°06'0 0.0
2018-Mar-20 08:16N 18°04' W 063°06'0 0.0
2018-Mar-20 07:52N 18°04' W 063°06'0 0.0
2018-Mar-20 07:22N 18°04' W 063°06'0 0.0
2018-Mar-20 06:52N 18°04' W 063°06'0 0.0
2018-Mar-20 06:19N 18°04' W 063°06'0 0.0
2018-Mar-20 05:52N 18°04' W 063°06'0 0.0
2018-Mar-20 05:22N 18°04' W 063°06'0 0.0
2018-Mar-20 04:52N 18°04' W 063°06'0 0.0
2018-Mar-20 04:25N 18°04' W 063°06'0 0.0
2018-Mar-20 03:55N 18°04' W 063°06'0 0.0
2018-Mar-20 03:25N 18°04' W 063°06'0 0.0
2018-Mar-20 02:58N 18°04' W 063°06'0 0.0
2018-Mar-20 02:28N 18°04' W 063°06'0 0.0
2018-Mar-20 01:58N 18°04' W 063°06'0 0.0
2018-Mar-20 01:28N 18°04' W 063°06'0 0.0
2018-Mar-20 00:58N 18°04' W 063°06'0 0.0
2018-Mar-20 00:28N 18°04' W 063°06'0 0.0
2018-Mar-19 23:55N 18°04' W 063°06'0 0.0
2018-Mar-19 23:28N 18°04' W 063°06'0 0.0
2018-Mar-19 22:46N 18°04' W 063°06'0 0.0
2018-Mar-19 22:16N 18°04' W 063°06'0 0.0
2018-Mar-19 21:49N 18°04' W 063°06'0 0.0
2018-Mar-19 21:16N 18°04' W 063°06'0 0.0
2018-Mar-19 20:46N 18°04' W 063°06'0 0.0
2018-Mar-19 20:19N 18°04' W 063°06'0 0.0
2018-Mar-19 19:46N 18°04' W 063°06'0 0.0
2018-Mar-19 19:22N 18°04' W 063°06'0 0.0
2018-Mar-19 18:52N 18°04' W 063°06'0 0.0
2018-Mar-19 18:19N 18°04' W 063°06'  

Dump ship's entire track history